Date,TemperatureHighF,TemperatureAvgF,TemperatureLowF,DewpointHighF,DewpointAvgF,DewpointLowF,HumidityHigh,HumidityAvg,HumidityLow,PressureMaxIn,PressureMinIn,WindSpeedMaxMPH,WindSpeedAvgMPH,GustSpeedMaxMPH,PrecipitationSumIn
2012-12-1,80,67,56,55,51,46,80,58,30,0.00,40.00,6,3,10,0.00
2012-12-2,80,66,56,53,49,46,71,57,35,0.00,40.00,8,4,12,0.00
2012-12-3,79,68,59,54,51,49,72,56,36,0.00,40.00,6,3,11,0.00
2012-12-4,82,68,56,50,48,45,78,51,28,0.00,40.00,8,4,14,0.00
2012-12-5,83,68,59,50,46,43,63,45,26,0.00,40.00,6,4,11,0.00
2012-12-6,80,64,55,47,41,-100,69,47,27,0.00,40.00,10,4,15,0.00
2012-12-7,80,67,52,46,40,34,79,41,20,0.00,40.00,11,5,17,0.00
2012-12-8,76,61,51,36,32,28,55,35,22,0.00,40.00,6,3,8,0.00
2012-12-9,77,62,50,32,28,22,48,30,14,0.00,40.00,13,6,19,0.00
2012-12-10,69,63,54,28,24,18,35,23,16,0.00,40.00,14,7,21,0.00
2012-12-11,73,59,49,30,26,19,47,29,18,0.00,40.00,9,4,16,0.00
2012-12-12,75,60,49,47,33,19,62,36,23,0.00,40.00,13,8,20,0.00
2012-12-13,71,59,52,52,45,31,94,62,34,0.00,40.00,19,9,29,0.50
2012-12-14,63,55,48,51,45,40,98,71,48,0.00,40.00,10,6,18,0.52
2012-12-15,61,55,51,47,45,41,82,70,56,0.00,40.00,12,5,18,0.01
2012-12-16,63,55,46,45,42,40,86,65,44,0.00,40.00,12,4,20,0.00
2012-12-17,69,60,54,48,44,40,72,57,43,0.00,40.00,7,5,11,0.00
2012-12-18,69,58,50,57,45,36,86,64,43,0.00,40.00,20,8,34,0.01
2012-12-19,59,51,43,37,24,16,59,37,18,0.00,40.00,18,7,30,0.01
2012-12-20,60,51,42,29,21,17,55,31,23,0.00,40.00,13,9,20,0.00
2012-12-21,63,52,44,30,24,20,55,34,19,0.00,40.00,11,7,18,0.00
2012-12-22,68,54,44,35,30,23,61,41,19,0.00,40.00,7,3,10,0.00
2012-12-23,66,53,42,42,35,31,70,52,30,0.00,40.00,8,4,12,0.00
2012-12-24,71,58,49,46,42,39,69,56,34,0.00,40.00,9,5,15,0.00
2012-12-25,61,55,49,44,16,10,73,24,14,0.00,40.00,13,7,23,0.00
2012-12-26,66,52,40,37,24,15,62,36,14,0.00,40.00,9,5,12,0.00
2012-12-27,63,52,42,40,36,31,78,55,32,0.00,40.00,11,4,18,0.00
2012-12-28,64,52,40,33,28,24,73,41,22,0.00,40.00,9,5,16,0.00
2012-12-29,63,52,43,33,28,26,56,40,25,0.00,40.00,9,5,13,0.00
2012-12-30,61,51,41,42,35,30,80,55,34,0.00,40.00,12,5,21,0.00
2012-12-31,61,51,40,41,30,19,90,53,22,0.00,40.00,9,4,15,0.00